Time;durP1;ratioP1;P1;durP2;ratioP2;P2;SDS_P1;SDS_P2;PMS_P1;PMS_P2;Temp;Humidity;BMP_temperature;BMP_pressure;BME280_temperature;BME280_humidity;BME280_pressure;Samples;Min_cycle;Max_cycle;Signal;HPM_P1;HPM_P2
2022/01/15 09:47:40;;;;;;;0.10;0.10;;;;;;;;;;5095585;28;20887;-66
2022/01/15 09:50:08;;;;;;;0.00;0.00;;;;;;;;;;5098139;28;20089;-65
2022/01/15 09:52:33;;;;;;;0.00;0.00;;;;;;;;;;5085629;27;20032;-65
2022/01/15 09:54:59;;;;;;;0.00;0.00;;;;;;;;;;5091030;28;20697;-65
2022/01/15 09:57:24;;;;;;;0.00;0.00;;;;;;;;;;5085411;28;20461;-63
2022/01/15 09:59:50;;;;;;;0.00;0.00;;;;;;;;;;5085649;28;20016;-63
2022/01/15 10:02:16;;;;;;;5.05;2.28;;;;;;;;;;5083112;28;20055;-63
2022/01/15 10:04:42;;;;;;;0.00;0.00;;;;;;;;;;5084774;28;20465;-63
2022/01/15 10:07:10;;;;;;;0.00;0.00;;;;;;;;;;5083961;28;20066;-63
2022/01/15 10:09:36;;;;;;;0.30;0.30;;;;;;;;;;5085392;28;20042;-63
2022/01/15 10:12:01;;;;;;;1.67;1.67;;;;;;;;;;5085227;28;20127;-63
2022/01/15 10:14:28;;;;;;;0.00;0.00;;;;;;;;;;5083569;28;20079;-62
2022/01/15 10:16:55;;;;;;;0.25;0.25;;;;;;;;;;5083324;28;20029;-63
2022/01/15 10:19:24;;;;;;;2.33;2.17;;;;;;;;;;5086240;28;20020;-63
2022/01/15 10:22:08;;;;;;;0.00;0.00;;;;;;;;;;5086554;28;20016;-62
2022/01/15 10:24:33;;;;;;;0.00;0.00;;;;;;;;;;5087543;28;20028;-63
2022/01/15 10:27:19;;;;;;;0.17;0.17;;;;;;;;;;5093801;28;20426;-64
2022/01/15 10:29:52;;;;;;;0.00;0.00;;;;;;;;;;5090390;28;20040;-62
2022/01/15 10:32:17;;;;;;;0.65;0.65;;;;;;;;;;5086226;28;20130;-62
2022/01/15 10:34:44;;;;;;;0.10;0.10;;;;;;;;;;5089854;28;20017;-60
2022/01/15 10:37:12;;;;;;;0.17;0.17;;;;;;;;;;5094154;28;20042;-61
2022/01/15 10:39:38;;;;;;;1.45;1.45;;;;;;;;;;5086836;28;20457;-61
2022/01/15 10:42:12;;;;;;;1.02;1.02;;;;;;;;;;5084454;28;20054;-60
2022/01/15 10:44:38;;;;;;;2.03;2.03;;;;;;;;;;5087928;28;20467;-59
2022/01/15 10:47:07;;;;;;;0.00;0.00;;;;;;;;;;5096993;28;20051;-59
2022/01/15 10:49:33;;;;;;;0.00;0.00;;;;;;;;;;5092309;28;20074;-60
2022/01/15 10:52:06;;;;;;;0.52;0.52;;;;;;;;;;5088962;28;20033;-58
2022/01/15 10:54:31;;;;;;;0.00;0.00;;;;;;;;;;5084323;28;20077;-60
2022/01/15 10:57:09;;;;;;;0.40;0.40;;;;;;;;;;5081409;28;20024;-62
2022/01/15 10:59:35;;;;;;;0.47;0.47;;;;;;;;;;5068319;28;20027;-60
2022/01/15 11:02:17;;;;;;;1.48;1.38;;;;;;;;;;5069655;28;20024;-60
2022/01/15 11:04:42;;;;;;;0.00;0.00;;;;;;;;;;5071440;28;20490;-59
2022/01/15 11:07:11;;;;;;;1.75;0.65;;;;;;;;;;5065571;28;20032;-60
2022/01/15 11:09:36;;;;;;;0.00;0.00;;;;;;;;;;5069258;28;20024;-59
2022/01/15 11:12:02;;;;;;;0.10;0.10;;;;;;;;;;5069869;28;20464;-60
2022/01/15 11:14:27;;;;;;;0.00;0.00;;;;;;;;;;5070001;28;20103;-60
2022/01/15 11:16:54;;;;;;;0.00;0.00;;;;;;;;;;5070507;28;20119;-61
2022/01/15 11:19:20;;;;;;;1.02;1.02;;;;;;;;;;5068943;28;20020;-60
2022/01/15 11:21:46;;;;;;;0.00;0.00;;;;;;;;;;5067151;28;20473;-60
2022/01/15 11:24:11;;;;;;;0.00;0.00;;;;;;;;;;5069790;28;20073;-60
2022/01/15 11:26:37;;;;;;;0.00;0.00;;;;;;;;;;5069632;28;20389;-60
2022/01/15 11:29:02;;;;;;;0.00;0.00;;;;;;;;;;5070300;28;20071;-59
2022/01/15 11:31:32;;;;;;;0.00;0.00;;;;;;;;;;5068392;28;20440;-60
2022/01/15 11:34:01;;;;;;;0.00;0.00;;;;;;;;;;5069228;28;20108;-60
2022/01/15 11:36:42;;;;;;;0.00;0.00;;;;;;;;;;5069437;28;20043;-59
2022/01/15 11:39:08;;;;;;;0.38;0.38;;;;;;;;;;5069731;28;20012;-59
2022/01/15 11:41:35;;;;;;;0.10;0.10;;;;;;;;;;5067860;28;20024;-59
2022/01/15 11:44:00;;;;;;;0.00;0.00;;;;;;;;;;5068922;28;20074;-59
2022/01/15 11:46:44;;;;;;;6.40;3.30;;;;;;;;;;5068060;28;20405;-60
2022/01/15 11:49:28;;;;;;;0.00;0.00;;;;;;;;;;5071801;28;20046;-59
2022/01/15 11:51:53;;;;;;;0.00;0.00;;;;;;;;;;5068565;28;20024;-60
2022/01/15 11:54:18;;;;;;;1.13;1.13;;;;;;;;;;5068820;28;20516;-58
2022/01/15 11:56:44;;;;;;;0.00;0.00;;;;;;;;;;5069379;28;20020;-59
2022/01/15 11:59:25;;;;;;;0.00;0.00;;;;;;;;;;5068654;28;20103;-60
2022/01/15 12:01:54;;;;;;;0.00;0.00;;;;;;;;;;5067999;28;20393;-60
2022/01/15 12:04:23;;;;;;;0.00;0.00;;;;;;;;;;5069060;28;20052;-59
2022/01/15 12:06:49;;;;;;;;;;;;;;;;;;5067765;28;20540;-60
2022/01/15 12:09:33;;;;;;;0.00;0.00;;;;;;;;;;5065908;28;20428;-60
2022/01/15 12:11:58;;;;;;;0.00;0.00;;;;;;;;;;5068222;28;20255;-60
2022/01/15 12:14:42;;;;;;;0.00;0.00;;;;;;;;;;5063729;28;20032;-61
2022/01/15 12:17:22;;;;;;;3.65;3.38;;;;;;;;;;5066538;28;20028;-60
2022/01/15 12:19:47;;;;;;;2.08;1.98;;;;;;;;;;5079898;28;20020;-60
2022/01/15 12:22:32;;;;;;;1.10;1.10;;;;;;;;;;5079989;28;20043;-59
2022/01/15 12:24:57;;;;;;;0.43;0.13;;;;;;;;;;5080688;28;20032;-59
2022/01/15 12:27:26;;;;;;;0.00;0.00;;;;;;;;;;5080562;28;20032;-60
2022/01/15 12:29:57;;;;;;;0.00;0.00;;;;;;;;;;5069709;28;20635;-59
2022/01/15 12:32:26;;;;;;;0.65;0.65;;;;;;;;;;5070021;28;20338;-58
2022/01/15 12:34:52;;;;;;;0.00;0.00;;;;;;;;;;5075477;28;20024;-58
2022/01/15 12:37:17;;;;;;;0.32;0.32;;;;;;;;;;5081676;28;20485;-59
2022/01/15 12:39:42;;;;;;;0.00;0.00;;;;;;;;;;5069428;28;20487;-58
2022/01/15 12:42:10;;;;;;;0.00;0.00;;;;;;;;;;5076203;28;20021;-60
2022/01/15 12:44:42;;;;;;;0.00;0.00;;;;;;;;;;5072570;28;20021;-59
2022/01/15 12:47:07;;;;;;;0.00;0.00;;;;;;;;;;5070325;28;20530;-61
2022/01/15 12:49:36;;;;;;;0.00;0.00;;;;;;;;;;5077326;28;20024;-61
2022/01/15 12:52:12;;;;;;;0.80;0.80;;;;;;;;;;5079413;28;20024;-60
2022/01/15 12:54:37;;;;;;;0.55;0.35;;;;;;;;;;5077065;28;20036;-58
2022/01/15 12:57:03;;;;;;;1.38;1.27;;;;;;;;;;5078831;28;20025;-60
2022/01/15 12:59:28;;;;;;;0.00;0.00;;;;;;;;;;5079284;28;20030;-60
2022/01/15 13:01:53;;;;;;;0.00;0.00;;;;;;;;;;5083128;28;20016;-58
2022/01/15 13:04:19;;;;;;;0.00;0.00;;;;;;;;;;5082312;28;21970;-60
2022/01/15 13:06:49;;;;;;;0.00;0.00;;;;;;;;;;5076242;28;20024;-59
2022/01/15 13:09:15;;;;;;;2.90;2.70;;;;;;;;;;5077732;28;20032;-58
2022/01/15 13:11:48;;;;;;;0.00;0.00;;;;;;;;;;5078317;28;20411;-60
2022/01/15 13:14:13;;;;;;;0.00;0.00;;;;;;;;;;5080250;28;20024;-60
2022/01/15 13:16:38;;;;;;;2.72;2.47;;;;;;;;;;5078532;28;20033;-59
2022/01/15 13:19:06;;;;;;;0.20;0.20;;;;;;;;;;5078187;28;20021;-58
2022/01/15 13:21:33;;;;;;;0.00;0.00;;;;;;;;;;5072116;28;20085;-60
2022/01/15 13:24:12;;;;;;;0.00;0.00;;;;;;;;;;5080648;28;20019;-59
2022/01/15 13:26:39;;;;;;;0.25;0.20;;;;;;;;;;5079600;28;20021;-59
2022/01/15 13:29:05;;;;;;;0.13;0.13;;;;;;;;;;5071033;28;20024;-59
2022/01/15 13:31:32;;;;;;;0.03;0.03;;;;;;;;;;5074101;28;20536;-59
2022/01/15 13:34:06;;;;;;;3.17;2.92;;;;;;;;;;5078354;28;20099;-58
2022/01/15 13:36:31;;;;;;;1.38;1.02;;;;;;;;;;5076359;28;20461;-60
2022/01/15 13:38:56;;;;;;;0.00;0.00;;;;;;;;;;5082269;28;20039;-59
2022/01/15 13:41:23;;;;;;;0.75;0.75;;;;;;;;;;5077400;28;20016;-58
2022/01/15 13:43:51;;;;;;;1.25;1.25;;;;;;;;;;5067539;28;20039;-59
2022/01/15 13:46:17;;;;;;;0.55;0.55;;;;;;;;;;5074953;28;20057;-58
2022/01/15 13:48:47;;;;;;;0.00;0.00;;;;;;;;;;5079052;28;20036;-60
2022/01/15 13:54:08;;;;;;;0.00;0.00;;;;;;;;;;5078565;28;20054;-59
2022/01/15 13:56:35;;;;;;;0.00;0.00;;;;;;;;;;5075712;28;20017;-58
2022/01/15 13:59:03;;;;;;;3.63;1.00;;;;;;;;;;5077271;28;20032;-59
2022/01/15 14:01:39;;;;;;;0.00;0.00;;;;;;;;;;5078185;28;20016;-61
2022/01/15 14:04:19;;;;;;;0.25;0.25;;;;;;;;;;5075445;28;20027;-60
2022/01/15 14:06:45;;;;;;;0.00;0.00;;;;;;;;;;5081893;28;20027;-61
2022/01/15 14:09:15;;;;;;;0.55;0.55;;;;;;;;;;5081740;28;20372;-61
2022/01/15 14:11:53;;;;;;;0.00;0.00;;;;;;;;;;5078355;28;20016;-61
2022/01/15 14:14:18;;;;;;;1.55;1.50;;;;;;;;;;5073583;28;20028;-63
2022/01/15 14:16:43;;;;;;;0.00;0.00;;;;;;;;;;5074874;28;20032;-60
2022/01/15 14:22:16;;;;;;;0.10;0.10;;;;;;;;;;5055063;28;20481;-60
2022/01/15 14:24:43;;;;;;;0.45;0.45;;;;;;;;;;5053982;28;20033;-62
2022/01/15 14:27:14;;;;;;;0.60;0.60;;;;;;;;;;5054825;28;20024;-61
2022/01/15 14:29:39;;;;;;;0.00;0.00;;;;;;;;;;5072662;28;20436;-61
2022/01/15 14:32:05;;;;;;;0.10;0.10;;;;;;;;;;5066220;28;20088;-61
2022/01/15 14:34:30;;;;;;;0.00;0.00;;;;;;;;;;5070739;28;20029;-61
2022/01/15 14:36:55;;;;;;;0.22;0.22;;;;;;;;;;5076837;28;20024;-59
2022/01/15 14:39:20;;;;;;;0.00;0.00;;;;;;;;;;5071492;28;20025;-62
2022/01/15 14:41:46;;;;;;;0.00;0.00;;;;;;;;;;5076469;28;20024;-60
2022/01/15 14:44:11;;;;;;;0.00;0.00;;;;;;;;;;5077221;28;20038;-61
2022/01/15 14:46:36;;;;;;;0.32;0.32;;;;;;;;;;5068532;28;20132;-61
2022/01/15 14:49:05;;;;;;;1.08;1.08;;;;;;;;;;5075225;28;20021;-60
2022/01/15 14:51:32;;;;;;;1.80;1.35;;;;;;;;;;5069763;28;20036;-62
2022/01/15 14:53:58;;;;;;;0.20;0.20;;;;;;;;;;5083282;28;20024;-59
2022/01/15 14:56:23;;;;;;;0.00;0.00;;;;;;;;;;5084069;28;20024;-59
2022/01/15 14:58:49;;;;;;;0.00;0.00;;;;;;;;;;5074788;28;20021;-60
2022/01/15 15:01:14;;;;;;;0.20;0.20;;;;;;;;;;5074832;28;20017;-60
2022/01/15 15:03:41;;;;;;;0.28;0.28;;;;;;;;;;5079559;28;20020;-61
2022/01/15 15:06:07;;;;;;;0.08;0.08;;;;;;;;;;5070659;28;20024;-60
2022/01/15 15:08:32;;;;;;;0.00;0.00;;;;;;;;;;5067270;28;20074;-61
2022/01/15 15:10:57;;;;;;;0.00;0.00;;;;;;;;;;5075050;28;20028;-59
2022/01/15 15:13:24;;;;;;;3.22;1.52;;;;;;;;;;5073032;28;20438;-59
2022/01/15 15:15:49;;;;;;;0.00;0.00;;;;;;;;;;5075434;28;20017;-58
2022/01/15 15:18:15;;;;;;;0.00;0.00;;;;;;;;;;5074155;28;20149;-59
2022/01/15 15:20:40;;;;;;;1.45;1.45;;;;;;;;;;5075641;28;20021;-57
2022/01/15 15:23:05;;;;;;;1.10;1.10;;;;;;;;;;5073088;28;20028;-59
2022/01/15 15:25:30;;;;;;;0.00;0.00;;;;;;;;;;5073579;28;20061;-60
2022/01/15 15:27:56;;;;;;;0.00;0.00;;;;;;;;;;5069938;28;20012;-59
2022/01/15 15:30:21;;;;;;;0.00;0.00;;;;;;;;;;5078784;28;20020;-58
2022/01/15 15:32:47;;;;;;;0.00;0.00;;;;;;;;;;5072934;28;20484;-59
2022/01/15 15:35:12;;;;;;;0.00;0.00;;;;;;;;;;5073193;28;20016;-59
2022/01/15 15:37:38;;;;;;;0.00;0.00;;;;;;;;;;5070623;28;20056;-59
2022/01/15 15:40:04;;;;;;;0.10;0.10;;;;;;;;;;5073333;28;21090;-58
2022/01/15 15:42:29;;;;;;;0.00;0.00;;;;;;;;;;5078538;28;20028;-59
2022/01/15 15:44:54;;;;;;;0.00;0.00;;;;;;;;;;5072902;28;20032;-58
2022/01/15 15:47:20;;;;;;;0.00;0.00;;;;;;;;;;5075300;28;20428;-59
2022/01/15 15:49:46;;;;;;;0.00;0.00;;;;;;;;;;5073804;28;20024;-60
2022/01/15 15:52:11;;;;;;;0.00;0.00;;;;;;;;;;5069506;28;20063;-60
2022/01/15 15:54:37;;;;;;;0.00;0.00;;;;;;;;;;5067357;28;20046;-60
2022/01/15 15:57:04;;;;;;;0.00;0.00;;;;;;;;;;5068061;28;20060;-60
2022/01/15 15:59:29;;;;;;;0.00;0.00;;;;;;;;;;5067463;28;20023;-60
2022/01/15 16:01:55;;;;;;;0.00;0.00;;;;;;;;;;5067510;28;20012;-60
2022/01/15 16:04:20;;;;;;;0.00;0.00;;;;;;;;;;5068360;28;20043;-60
2022/01/15 16:06:45;;;;;;;0.75;0.75;;;;;;;;;;5074968;28;20031;-60
2022/01/15 16:09:10;;;;;;;2.30;2.10;;;;;;;;;;5067310;28;20116;-60
2022/01/15 16:11:37;;;;;;;0.10;0.10;;;;;;;;;;5068599;28;20047;-60
2022/01/15 16:14:05;;;;;;;1.10;1.00;;;;;;;;;;5076445;28;20528;-59
2022/01/15 16:16:33;;;;;;;0.00;0.00;;;;;;;;;;5068291;28;20040;-60
2022/01/15 16:18:59;;;;;;;0.00;0.00;;;;;;;;;;5069740;28;20311;-60
2022/01/15 16:21:25;;;;;;;0.00;0.00;;;;;;;;;;5066074;28;20021;-61
2022/01/15 16:23:51;;;;;;;0.30;0.30;;;;;;;;;;5069286;28;20017;-61
2022/01/15 16:26:17;;;;;;;0.10;0.10;;;;;;;;;;5080612;28;20107;-60
2022/01/15 16:28:42;;;;;;;0.00;0.00;;;;;;;;;;5082481;28;20434;-60
2022/01/15 16:31:08;;;;;;;0.00;0.00;;;;;;;;;;5073376;28;20115;-60
2022/01/15 16:33:33;;;;;;;0.00;0.00;;;;;;;;;;5066125;28;20090;-61
2022/01/15 16:35:59;;;;;;;9.80;5.57;;;;;;;;;;5069381;28;20063;-61
2022/01/15 16:38:26;;;;;;;0.03;0.03;;;;;;;;;;5064842;28;20156;-59
2022/01/15 16:40:52;;;;;;;0.00;0.00;;;;;;;;;;5074548;28;20020;-60
2022/01/15 16:43:17;;;;;;;0.35;0.35;;;;;;;;;;5074866;28;20016;-61
2022/01/15 16:45:43;;;;;;;1.10;1.10;;;;;;;;;;5068012;28;20087;-61
2022/01/15 16:48:08;;;;;;;0.00;0.00;;;;;;;;;;5067680;28;20020;-60
2022/01/15 16:50:35;;;;;;;0.00;0.00;;;;;;;;;;5071715;28;20018;-60
2022/01/15 16:53:01;;;;;;;0.00;0.00;;;;;;;;;;5066151;28;20032;-62
2022/01/15 16:55:26;;;;;;;0.00;0.00;;;;;;;;;;5079567;28;20020;-58
2022/01/15 16:57:51;;;;;;;8.05;3.92;;;;;;;;;;5080539;28;20071;-58
2022/01/15 17:00:17;;;;;;;0.10;0.10;;;;;;;;;;5082211;28;20468;-60
2022/01/15 17:02:43;;;;;;;0.52;0.38;;;;;;;;;;5071543;28;20384;-59
2022/01/15 17:05:08;;;;;;;0.00;0.00;;;;;;;;;;5078509;28;20055;-59
2022/01/15 17:07:34;;;;;;;0.05;0.05;;;;;;;;;;5080906;28;20020;-58
2022/01/15 17:09:59;;;;;;;0.00;0.00;;;;;;;;;;5079551;28;20373;-59
2022/01/15 17:12:25;;;;;;;0.00;0.00;;;;;;;;;;5076431;28;20024;-59
2022/01/15 17:14:50;;;;;;;3.35;3.15;;;;;;;;;;5078403;28;20111;-60
2022/01/15 17:17:15;;;;;;;1.27;1.23;;;;;;;;;;5080156;28;20173;-58
2022/01/15 17:19:41;;;;;;;0.03;0.03;;;;;;;;;;5078083;28;20024;-61
2022/01/15 17:22:06;;;;;;;0.00;0.00;;;;;;;;;;5079344;28;20019;-61
2022/01/15 17:24:31;;;;;;;0.00;0.00;;;;;;;;;;5079713;28;20031;-61
2022/01/15 17:26:57;;;;;;;0.00;0.00;;;;;;;;;;5077666;28;20125;-60
2022/01/15 17:29:22;;;;;;;0.00;0.00;;;;;;;;;;5067591;28;20032;-62
2022/01/15 17:31:48;;;;;;;1.00;1.00;;;;;;;;;;5068162;28;20028;-59
2022/01/15 17:34:13;;;;;;;1.60;0.32;;;;;;;;;;5072128;28;20472;-59
2022/01/15 17:36:38;;;;;;;0.00;0.00;;;;;;;;;;5066893;28;20024;-60
2022/01/15 17:39:04;;;;;;;0.00;0.00;;;;;;;;;;5079742;28;20016;-61
2022/01/15 17:41:29;;;;;;;0.00;0.00;;;;;;;;;;5068540;28;20016;-59
2022/01/15 17:43:55;;;;;;;0.00;0.00;;;;;;;;;;5066691;28;20013;-59
2022/01/15 17:46:20;;;;;;;0.35;0.35;;;;;;;;;;5076566;28;20050;-60
2022/01/15 17:48:46;;;;;;;0.00;0.00;;;;;;;;;;5074571;28;20020;-60
2022/01/15 17:51:11;;;;;;;0.00;0.00;;;;;;;;;;5069990;28;20029;-62
2022/01/15 17:53:36;;;;;;;0.00;0.00;;;;;;;;;;5067732;28;20100;-60
2022/01/15 17:56:02;;;;;;;0.00;0.00;;;;;;;;;;5065930;28;20029;-62
2022/01/15 17:58:28;;;;;;;0.13;0.13;;;;;;;;;;5073053;28;20097;-61
2022/01/15 18:00:53;;;;;;;0.52;0.52;;;;;;;;;;5068312;28;20020;-61
2022/01/15 18:03:19;;;;;;;0.00;0.00;;;;;;;;;;5081537;28;20012;-57
2022/01/15 18:05:44;;;;;;;1.25;1.25;;;;;;;;;;5072251;28;20036;-59
2022/01/15 18:08:09;;;;;;;1.45;1.45;;;;;;;;;;5071701;28;20404;-59
2022/01/15 18:10:35;;;;;;;0.00;0.00;;;;;;;;;;5083294;28;20047;-59
2022/01/15 18:13:01;;;;;;;0.00;0.00;;;;;;;;;;5073469;28;20024;-60
2022/01/15 18:15:33;;;;;;;0.00;0.00;;;;;;;;;;5089776;28;20486;-61
2022/01/15 18:17:58;;;;;;;1.38;1.30;;;;;;;;;;5084517;28;20115;-59
2022/01/15 18:20:24;;;;;;;0.10;0.10;;;;;;;;;;5075382;28;20558;-63
2022/01/15 18:22:50;;;;;;;0.30;0.30;;;;;;;;;;5070573;28;20044;-61
2022/01/15 18:25:16;;;;;;;0.00;0.00;;;;;;;;;;5078173;28;20012;-60
2022/01/15 18:27:46;;;;;;;0.00;0.00;;;;;;;;;;5083937;28;20028;-59
2022/01/15 18:30:11;;;;;;;;;;;;;;;;;;5069100;28;20031;-60
2022/01/15 18:32:36;;;;;;;0.00;0.00;;;;;;;;;;5070695;28;19909;-60
2022/01/15 18:35:02;;;;;;;1.27;1.27;;;;;;;;;;5070470;28;20063;-59
2022/01/15 18:37:27;;;;;;;0.38;0.38;;;;;;;;;;5070033;28;20491;-60
2022/01/15 18:39:52;;;;;;;1.15;0.63;;;;;;;;;;5079067;28;20046;-59
2022/01/15 18:42:18;;;;;;;0.00;0.00;;;;;;;;;;5068568;28;20678;-60
2022/01/15 18:44:43;;;;;;;0.00;0.00;;;;;;;;;;5068954;28;20040;-59
2022/01/15 18:47:08;;;;;;;0.00;0.00;;;;;;;;;;5070825;28;20052;-60
2022/01/15 18:49:34;;;;;;;0.00;0.00;;;;;;;;;;5074840;28;20111;-59
2022/01/15 18:51:59;;;;;;;0.55;0.55;;;;;;;;;;5075645;28;20052;-62
2022/01/15 18:54:24;;;;;;;0.00;0.00;;;;;;;;;;5075426;28;20070;-62
2022/01/15 18:56:49;;;;;;;0.00;0.00;;;;;;;;;;5078253;28;20446;-62
2022/01/15 18:59:18;;;;;;;0.00;0.00;;;;;;;;;;5081773;28;20424;-60
2022/01/15 19:01:44;;;;;;;0.00;0.00;;;;;;;;;;5078013;28;20025;-60
2022/01/15 19:04:09;;;;;;;0.00;0.00;;;;;;;;;;5076786;28;20023;-59
2022/01/15 19:06:35;;;;;;;0.00;0.00;;;;;;;;;;5079041;28;20461;-61
2022/01/15 19:09:00;;;;;;;0.00;0.00;;;;;;;;;;5076782;28;20016;-61
2022/01/15 19:11:25;;;;;;;0.00;0.00;;;;;;;;;;5077897;28;20106;-62
2022/01/15 19:13:51;;;;;;;6.97;6.72;;;;;;;;;;5076116;28;20185;-61
2022/01/15 19:16:16;;;;;;;0.00;0.00;;;;;;;;;;5079905;28;20413;-61
2022/01/15 19:18:41;;;;;;;0.00;0.00;;;;;;;;;;5077362;28;20027;-61
2022/01/15 19:21:06;;;;;;;0.00;0.00;;;;;;;;;;5076894;28;20535;-63
2022/01/15 19:23:32;;;;;;;0.00;0.00;;;;;;;;;;5077200;28;20195;-63
2022/01/15 19:25:58;;;;;;;0.10;0.10;;;;;;;;;;5073330;28;20392;-62
2022/01/15 19:28:23;;;;;;;1.13;1.13;;;;;;;;;;5067414;28;20082;-60
2022/01/15 19:30:48;;;;;;;0.80;0.80;;;;;;;;;;5068058;28;20507;-59
2022/01/15 19:33:13;;;;;;;0.47;0.47;;;;;;;;;;5076147;28;20550;-59
2022/01/15 19:35:39;;;;;;;2.75;1.55;;;;;;;;;;5071952;28;20443;-60
2022/01/15 19:38:05;;;;;;;0.00;0.00;;;;;;;;;;5072769;28;20082;-60
2022/01/15 19:40:31;;;;;;;0.00;0.00;;;;;;;;;;5070367;28;20066;-60
2022/01/15 19:42:56;;;;;;;0.00;0.00;;;;;;;;;;5076192;28;20024;-60
2022/01/15 19:45:21;;;;;;;1.20;0.55;;;;;;;;;;5070389;28;20115;-60
2022/01/15 19:47:47;;;;;;;0.85;0.85;;;;;;;;;;5068676;28;20027;-60
2022/01/15 19:50:14;;;;;;;0.38;0.38;;;;;;;;;;5069968;28;20024;-61
2022/01/15 19:52:40;;;;;;;0.00;0.00;;;;;;;;;;5066327;28;20040;-60
2022/01/15 19:55:06;;;;;;;0.00;0.00;;;;;;;;;;5067934;28;20024;-60
2022/01/15 19:57:31;;;;;;;0.10;0.10;;;;;;;;;;5071279;28;20032;-60
2022/01/15 19:59:57;;;;;;;0.43;0.43;;;;;;;;;;5066521;28;20028;-60
2022/01/15 20:02:22;;;;;;;0.00;0.00;;;;;;;;;;5070998;28;20036;-59
2022/01/15 20:04:48;;;;;;;0.00;0.00;;;;;;;;;;5065783;28;20090;-59
2022/01/15 20:07:13;;;;;;;0.70;0.70;;;;;;;;;;5067375;28;20468;-59
2022/01/15 20:09:39;;;;;;;0.88;0.65;;;;;;;;;;5067053;28;20596;-62
2022/01/15 20:12:04;;;;;;;0.30;0.30;;;;;;;;;;5068170;28;20029;-60
2022/01/15 20:14:29;;;;;;;0.00;0.00;;;;;;;;;;5070627;28;20081;-60
2022/01/15 20:16:55;;;;;;;0.00;0.00;;;;;;;;;;5075728;28;20028;-60
2022/01/15 20:19:20;;;;;;;0.17;0.17;;;;;;;;;;5075886;28;20016;-60
2022/01/15 20:21:45;;;;;;;0.00;0.00;;;;;;;;;;5074006;28;20087;-61
2022/01/15 20:24:11;;;;;;;0.00;0.00;;;;;;;;;;5071044;28;20025;-60
2022/01/15 20:26:37;;;;;;;0.00;0.00;;;;;;;;;;5073768;28;20032;-59
2022/01/15 20:29:03;;;;;;;1.10;1.08;;;;;;;;;;5075445;28;20361;-60
2022/01/15 20:31:29;;;;;;;0.00;0.00;;;;;;;;;;5073195;28;20039;-61
2022/01/15 20:33:54;;;;;;;0.00;0.00;;;;;;;;;;5075140;28;20109;-62
2022/01/15 20:36:20;;;;;;;0.22;0.22;;;;;;;;;;5077392;28;20471;-60
2022/01/15 20:38:46;;;;;;;1.13;1.13;;;;;;;;;;5071902;28;20081;-61
2022/01/15 20:41:11;;;;;;;0.00;0.00;;;;;;;;;;5073923;28;20056;-59
2022/01/15 20:43:36;;;;;;;0.00;0.00;;;;;;;;;;5073097;28;20016;-60
2022/01/15 20:46:02;;;;;;;0.63;0.63;;;;;;;;;;5071985;28;20052;-59
2022/01/15 20:48:29;;;;;;;0.00;0.00;;;;;;;;;;5073420;28;20028;-59
2022/01/15 20:50:54;;;;;;;0.20;0.20;;;;;;;;;;5070633;28;20044;-60
2022/01/15 20:53:19;;;;;;;0.00;0.00;;;;;;;;;;5079663;28;20052;-60
2022/01/15 20:55:45;;;;;;;0.00;0.00;;;;;;;;;;5083711;28;20032;-60
2022/01/15 20:58:10;;;;;;;0.00;0.00;;;;;;;;;;5075255;28;20029;-61
2022/01/15 21:00:37;;;;;;;0.00;0.00;;;;;;;;;;5070278;28;20095;-60
2022/01/15 21:03:03;;;;;;;0.00;0.00;;;;;;;;;;5067111;28;20103;-59
2022/01/15 21:05:29;;;;;;;0.00;0.00;;;;;;;;;;5070036;28;20486;-61
2022/01/15 21:07:55;;;;;;;0.00;0.00;;;;;;;;;;5076272;28;20028;-60
2022/01/15 21:10:20;;;;;;;0.00;0.00;;;;;;;;;;5072631;28;20086;-59
2022/01/15 21:12:45;;;;;;;0.00;0.00;;;;;;;;;;5074565;28;20063;-61
2022/01/15 21:15:11;;;;;;;0.00;0.00;;;;;;;;;;5066751;28;20036;-60
2022/01/15 21:17:36;;;;;;;1.70;1.70;;;;;;;;;;5067080;28;20035;-60
2022/01/15 21:20:03;;;;;;;0.00;0.00;;;;;;;;;;5072597;28;20059;-58
2022/01/15 21:22:28;;;;;;;0.17;0.15;;;;;;;;;;5069079;28;20086;-60
2022/01/15 21:24:53;;;;;;;0.00;0.00;;;;;;;;;;5066991;28;20032;-60
2022/01/15 21:27:20;;;;;;;0.00;0.00;;;;;;;;;;5069965;28;20020;-59
2022/01/15 21:29:45;;;;;;;1.00;1.00;;;;;;;;;;5066766;28;20055;-59
2022/01/15 21:32:16;;;;;;;0.25;0.25;;;;;;;;;;5076667;28;20060;-59
2022/01/15 21:34:41;;;;;;;0.00;0.00;;;;;;;;;;5068368;28;20036;-60
2022/01/15 21:37:07;;;;;;;1.13;1.10;;;;;;;;;;5071593;28;20077;-59
2022/01/15 21:39:32;;;;;;;1.08;0.65;;;;;;;;;;5068913;28;20027;-59
2022/01/15 21:41:57;;;;;;;0.00;0.00;;;;;;;;;;5070717;28;20013;-60
2022/01/15 21:44:22;;;;;;;0.00;0.00;;;;;;;;;;5076382;28;20016;-60
2022/01/15 21:46:48;;;;;;;1.08;0.38;;;;;;;;;;5070188;28;20143;-59
2022/01/15 21:49:16;;;;;;;1.00;1.00;;;;;;;;;;5066312;28;20060;-60
2022/01/15 21:51:42;;;;;;;0.05;0.05;;;;;;;;;;5066531;28;20031;-60
2022/01/15 21:54:07;;;;;;;0.57;0.57;;;;;;;;;;5064799;28;20452;-58
2022/01/15 21:56:33;;;;;;;0.00;0.00;;;;;;;;;;5063764;28;20025;-60
2022/01/15 21:58:58;;;;;;;0.38;0.38;;;;;;;;;;5078539;28;20074;-60
2022/01/15 22:01:23;;;;;;;0.00;0.00;;;;;;;;;;5066737;28;20034;-60
2022/01/15 22:03:49;;;;;;;0.00;0.00;;;;;;;;;;5067189;28;20021;-60
2022/01/15 22:06:14;;;;;;;0.00;0.00;;;;;;;;;;5067122;28;20024;-60
2022/01/15 22:08:40;;;;;;;0.28;0.28;;;;;;;;;;5070470;28;20103;-59
2022/01/15 22:11:05;;;;;;;0.00;0.00;;;;;;;;;;5068569;28;20056;-60
2022/01/15 22:13:31;;;;;;;0.57;0.57;;;;;;;;;;5069361;28;20021;-59
2022/01/15 22:15:59;;;;;;;0.28;0.28;;;;;;;;;;5067566;28;20059;-60
2022/01/15 22:18:25;;;;;;;0.00;0.00;;;;;;;;;;5068035;28;20465;-60
2022/01/15 22:20:51;;;;;;;0.00;0.00;;;;;;;;;;5066205;28;20015;-60
2022/01/15 22:23:16;;;;;;;0.60;0.60;;;;;;;;;;5068979;28;20020;-59
2022/01/15 22:25:41;;;;;;;0.70;0.70;;;;;;;;;;5067865;28;20024;-60
2022/01/15 22:28:07;;;;;;;1.23;1.20;;;;;;;;;;5067708;28;20028;-59
2022/01/15 22:30:33;;;;;;;1.50;1.45;;;;;;;;;;5067003;28;20050;-59
2022/01/15 22:32:59;;;;;;;0.75;0.75;;;;;;;;;;5063222;28;20009;-59
2022/01/15 22:35:24;;;;;;;0.00;0.00;;;;;;;;;;5065614;28;20527;-61
2022/01/15 22:37:49;;;;;;;0.20;0.17;;;;;;;;;;5066670;28;20059;-59
2022/01/15 22:40:14;;;;;;;0.13;0.13;;;;;;;;;;5067508;28;20016;-60
2022/01/15 22:42:40;;;;;;;0.95;0.63;;;;;;;;;;5066438;28;20135;-60
2022/01/15 22:45:09;;;;;;;0.00;0.00;;;;;;;;;;5066774;28;20021;-61
2022/01/15 22:47:34;;;;;;;0.68;0.68;;;;;;;;;;5067546;28;20053;-62
2022/01/15 22:50:00;;;;;;;0.00;0.00;;;;;;;;;;5068218;28;20078;-62
2022/01/15 22:52:28;;;;;;;0.00;0.00;;;;;;;;;;5065236;28;20039;-61
2022/01/15 22:54:54;;;;;;;1.10;1.10;;;;;;;;;;5068006;28;20369;-61
2022/01/15 22:57:21;;;;;;;0.00;0.00;;;;;;;;;;5069666;28;20027;-61
2022/01/15 22:59:46;;;;;;;3.47;0.75;;;;;;;;;;5068082;28;20028;-62
2022/01/15 23:02:12;;;;;;;0.00;0.00;;;;;;;;;;5069070;28;20516;-63
2022/01/15 23:04:37;;;;;;;0.00;0.00;;;;;;;;;;5071356;28;20021;-63
2022/01/15 23:07:02;;;;;;;0.57;0.47;;;;;;;;;;5068847;28;20058;-64
2022/01/15 23:09:27;;;;;;;0.00;0.00;;;;;;;;;;5069171;28;20032;-64
2022/01/15 23:12:00;;;;;;;0.90;0.90;;;;;;;;;;5068852;28;20807;-65
2022/01/15 23:14:27;;;;;;;0.20;0.20;;;;;;;;;;5069365;28;20469;-63
2022/01/15 23:16:54;;;;;;;0.60;0.60;;;;;;;;;;5068985;28;20028;-64
2022/01/15 23:19:21;;;;;;;0.63;0.63;;;;;;;;;;5068602;28;20023;-63
2022/01/15 23:21:47;;;;;;;0.32;0.32;;;;;;;;;;5068544;28;20508;-63
2022/01/15 23:24:12;;;;;;;0.00;0.00;;;;;;;;;;5071868;28;20024;-63
2022/01/15 23:26:38;;;;;;;0.00;0.00;;;;;;;;;;5069498;28;20086;-63
2022/01/15 23:29:04;;;;;;;0.00;0.00;;;;;;;;;;5077081;28;20821;-63
2022/01/15 23:31:29;;;;;;;0.00;0.00;;;;;;;;;;5074428;28;20173;-63
2022/01/15 23:33:55;;;;;;;0.00;0.00;;;;;;;;;;5069188;28;20020;-63
2022/01/15 23:36:20;;;;;;;0.00;0.00;;;;;;;;;;5068112;28;21464;-64
2022/01/15 23:38:46;;;;;;;0.40;0.40;;;;;;;;;;5068393;28;20202;-65
2022/01/15 23:41:12;;;;;;;0.05;0.05;;;;;;;;;;5069338;28;20035;-65
2022/01/15 23:43:37;;;;;;;0.00;0.00;;;;;;;;;;5069942;28;20461;-64
2022/01/15 23:48:28;;;;;;;0.00;0.00;;;;;;;;;;5069837;28;20028;-64
2022/01/15 23:50:53;;;;;;;0.00;0.00;;;;;;;;;;5066636;28;20040;-64
2022/01/15 23:53:19;;;;;;;0.00;0.00;;;;;;;;;;5068667;28;20024;-64
2022/01/15 23:55:45;;;;;;;0.00;0.00;;;;;;;;;;5068640;28;20139;-63
2022/01/15 23:58:10;;;;;;;3.45;3.35;;;;;;;;;;5067720;28;20094;-63
